Terminal Aerodrome Forecast
Issued by NWS Norman, OK

Home | Current Version | Previous Version | Text Only | Print | Product List | Glossary On
Versions: 1 2 3 4 5 6 7 8 9 10 11 12 13 14 15 16 17 18 19 20
000
FTUS44 KOUN 281739
TAFSPS
TAF
KSPS 281739Z 2818/2918 VRB04KT P6SM SCT025 SCT250
     FM290800 15005KT 5SM BR OVC009 PROB30 2909/2915 -TSRA OVC015CB=

USA.gov is the U.S. government's official web portal to all federal, state and local government web resources and services.